Time;durP1;ratioP1;P1;durP2;ratioP2;P2;SDS_P1;SDS_P2;PMS_P1;PMS_P2;Temp;Humidity;BMP_temperature;BMP_pressure;BME280_temperature;BME280_humidity;BME280_pressure;Samples;Min_cycle;Max_cycle;Signal;HPM_P1;HPM_P2
2021/12/27 00:01:38;;;;;;;90.70;33.63;;;;;;;1.69;67.13;98775.34;10408585;28;20083;-66
2021/12/27 00:06:40;;;;;;;78.65;33.03;;;;;;;1.70;67.07;98774.47;10407130;28;20057;-66
2021/12/27 00:11:43;;;;;;;110.18;36.63;;;;;;;1.49;67.46;98775.34;10407880;28;20048;-66
2021/12/27 00:16:44;;;;;;;100.35;35.38;;;;;;;1.50;67.59;98769.31;10407461;28;20043;-66
2021/12/27 00:21:46;;;;;;;154.75;40.08;;;;;;;1.50;67.73;98774.47;10407431;28;20129;-66
2021/12/27 00:26:48;;;;;;;91.13;33.45;;;;;;;1.59;67.64;98771.50;10406957;28;20148;-66
2021/12/27 00:31:50;;;;;;;82.43;32.53;;;;;;;1.68;67.64;98768.53;10407137;28;20068;-66
2021/12/27 00:36:52;;;;;;;90.72;35.33;;;;;;;1.71;67.51;98760.66;10406270;28;20041;-66
2021/12/27 00:41:53;;;;;;;139.43;38.88;;;;;;;1.74;67.43;98753.66;10406520;28;20124;-66
2021/12/27 00:46:55;;;;;;;137.13;38.58;;;;;;;1.72;67.24;98749.47;10406395;28;20132;-66
2021/12/27 00:51:57;;;;;;;76.65;31.83;;;;;;;1.70;67.49;98748.69;10404734;28;20045;-66
2021/12/27 00:56:59;;;;;;;156.55;41.72;;;;;;;1.59;67.46;98745.72;10404121;28;20564;-66
2021/12/27 01:02:00;;;;;;;150.27;40.97;;;;;;;1.58;67.77;98739.75;10405633;28;20055;-66
2021/12/27 01:07:03;;;;;;;106.00;36.20;;;;;;;1.73;67.59;98748.56;10404901;28;20054;-66
2021/12/27 01:12:24;;;;;;;81.45;32.03;;;;;;;1.80;67.57;98752.56;10404605;28;20549;-66
2021/12/27 01:17:26;;;;;;;103.32;33.97;;;;;;;1.84;67.44;98757.53;10397304;28;20053;-67
2021/12/27 01:22:28;;;;;;;415.75;51.45;;;;;;;1.85;67.15;98754.03;10405109;28;20080;-67
2021/12/27 01:27:29;;;;;;;180.82;41.90;;;;;;;1.83;67.35;98753.25;10404176;28;20137;-66
2021/12/27 01:32:36;;;;;;;135.43;38.90;;;;;;;1.84;67.35;98754.94;10403605;28;20055;-66
2021/12/27 01:37:39;;;;;;;89.47;35.47;;;;;;;1.82;67.40;98748.16;10404663;28;20049;-66
2021/12/27 01:43:00;;;;;;;97.78;35.15;;;;;;;1.80;67.58;98748.25;10403880;28;20080;-67
2021/12/27 01:48:02;;;;;;;109.15;35.50;;;;;;;1.85;67.48;98746.28;10403278;28;20042;-66
2021/12/27 01:53:04;;;;;;;112.85;34.85;;;;;;;1.94;67.22;98745.06;10402837;28;20368;-66
2021/12/27 01:58:09;;;;;;;84.88;31.95;;;;;;;1.95;67.32;98741.59;10401400;28;20416;-66
2021/12/27 02:03:13;;;;;;;134.57;37.05;;;;;;;1.97;67.26;98744.94;10403456;28;20125;-66
2021/12/27 02:08:15;;;;;;;97.35;33.72;;;;;;;1.86;67.25;98729.94;10401945;28;20059;-66
2021/12/27 02:13:18;;;;;;;156.30;39.65;;;;;;;1.64;67.80;98725.78;10402396;28;20394;-66
2021/12/27 02:18:20;;;;;;;193.60;42.13;;;;;;;1.75;67.72;98736.44;10403696;28;20379;-66
2021/12/27 02:23:23;;;;;;;104.22;34.83;;;;;;;1.80;67.60;98737.09;10403120;28;20049;-66
2021/12/27 02:28:24;;;;;;;233.90;40.38;;;;;;;1.76;67.74;98740.72;10402984;28;20136;-66
2021/12/27 02:33:26;;;;;;;241.45;43.55;;;;;;;1.55;67.80;98726.16;10402311;28;20136;-67
2021/12/27 02:38:31;;;;;;;262.63;45.47;;;;;;;1.57;67.77;98714.03;10402734;28;20077;-66
2021/12/27 02:43:33;;;;;;;111.72;35.67;;;;;;;1.53;68.21;98720.22;10401449;28;20132;-66
2021/12/27 02:48:38;;;;;;;193.35;41.92;;;;;;;1.69;67.92;98713.50;10401550;28;20063;-66
2021/12/27 02:53:40;;;;;;;142.65;37.13;;;;;;;1.71;67.85;98707.38;10400507;28;20418;-67
2021/12/27 02:58:42;;;;;;;94.38;32.05;;;;;;;1.80;67.87;98703.59;10402957;28;20133;-66
2021/12/27 03:03:44;;;;;;;150.82;37.17;;;;;;;1.75;67.62;98703.78;10407260;28;20502;-66
2021/12/27 03:08:48;;;;;;;118.80;35.20;;;;;;;1.57;68.05;98708.88;10409864;28;20057;-67
2021/12/27 03:13:51;;;;;;;124.07;34.20;;;;;;;1.65;68.14;98706.81;10411491;28;20072;-67
2021/12/27 03:18:54;;;;;;;92.25;31.45;;;;;;;1.77;67.96;98701.13;10379113;28;20084;-66
2021/12/27 03:23:56;;;;;;;121.95;34.40;;;;;;;1.81;67.81;98706.09;10415924;28;20570;-66
2021/12/27 03:29:01;;;;;;;582.47;51.35;;;;;;;1.82;67.92;98700.03;10417737;28;20084;-66
2021/12/27 03:34:03;;;;;;;125.55;36.15;;;;;;;1.75;67.82;98688.31;10417547;28;20137;-66
2021/12/27 03:39:10;;;;;;;58.65;27.95;;;;;;;1.71;68.01;98676.47;10417494;28;20145;-66
2021/12/27 03:44:12;;;;;;;66.63;29.05;;;;;;;1.68;68.11;98678.34;10416163;28;20121;-66
2021/12/27 03:49:14;;;;;;;353.88;45.75;;;;;;;1.56;68.05;98679.72;10417624;28;20338;-66
2021/12/27 03:54:16;;;;;;;193.02;36.38;;;;;;;1.57;68.05;98672.81;10417072;28;20049;-66
2021/12/27 03:59:22;;;;;;;131.20;34.17;;;;;;;1.60;68.05;98678.69;10415404;28;20064;-66
2021/12/27 04:04:23;;;;;;;111.55;31.52;;;;;;;1.67;68.24;98681.81;10412664;28;20045;-66
2021/12/27 04:09:26;;;;;;;171.57;35.08;;;;;;;1.76;68.06;98684.00;10409932;28;20508;-66
2021/12/27 04:14:27;;;;;;;327.75;40.55;;;;;;;1.79;67.85;98683.84;10408701;28;20091;-66
2021/12/27 04:19:29;;;;;;;427.20;44.20;;;;;;;1.81;67.83;98679.47;10409104;28;20053;-66
2021/12/27 04:24:31;;;;;;;398.27;40.20;;;;;;;1.82;67.86;98668.25;10408831;28;20050;-66
2021/12/27 04:29:33;;;;;;;459.27;44.20;;;;;;;1.89;67.71;98674.84;10408512;28;20094;-66
2021/12/27 04:34:34;;;;;;;504.13;45.13;;;;;;;1.94;67.74;98668.56;10408357;28;20042;-66
2021/12/27 04:39:36;;;;;;;277.95;40.97;;;;;;;1.85;67.61;98665.53;10408177;28;20188;-66
2021/12/27 04:44:38;;;;;;;161.93;38.80;;;;;;;1.74;67.84;98660.03;10408121;28;20037;-66
2021/12/27 04:49:40;;;;;;;65.90;28.27;;;;;;;1.61;68.32;98651.16;10407571;28;20103;-66
2021/12/27 04:54:41;;;;;;;74.82;29.70;;;;;;;1.64;68.21;98649.31;10407576;28;20124;-66
2021/12/27 04:59:43;;;;;;;83.15;30.70;;;;;;;1.63;68.35;98646.78;10407654;28;20135;-66
2021/12/27 05:04:45;;;;;;;108.88;33.45;;;;;;;1.66;68.38;98644.91;10405443;28;20498;-66
2021/12/27 05:09:47;;;;;;;118.15;31.92;;;;;;;1.78;68.16;98659.00;10406983;28;20053;-66
2021/12/27 05:14:48;;;;;;;122.32;33.63;;;;;;;1.85;67.97;98647.50;10405867;28;20136;-66
2021/12/27 05:19:50;;;;;;;195.57;39.40;;;;;;;1.77;67.72;98636.69;10406177;28;20219;-66
2021/12/27 05:24:52;;;;;;;105.32;33.33;;;;;;;1.71;68.32;98630.06;10406207;28;20049;-66
2021/12/27 05:29:54;;;;;;;144.93;35.10;;;;;;;1.64;68.23;98620.97;10405248;28;20049;-66
2021/12/27 05:34:58;;;;;;;193.45;37.83;;;;;;;1.64;68.44;98627.84;10406402;28;20100;-66
2021/12/27 05:40:04;;;;;;;97.55;30.90;;;;;;;1.74;68.23;98636.84;10405712;28;20056;-65
2021/12/27 05:45:07;;;;;;;145.07;35.67;;;;;;;1.77;68.13;98634.09;10405801;28;20193;-66
2021/12/27 05:50:10;;;;;;;122.28;35.45;;;;;;;1.87;68.24;98632.81;10405043;28;20053;-65
2021/12/27 05:55:12;;;;;;;173.80;35.90;;;;;;;1.93;67.87;98632.53;10405444;28;20061;-66
2021/12/27 06:00:15;;;;;;;110.22;31.65;;;;;;;1.92;68.01;98629.13;10404397;28;20081;-65
2021/12/27 06:05:17;;;;;;;101.18;32.72;;;;;;;1.99;67.93;98630.50;10403337;28;20136;-66
2021/12/27 06:10:19;;;;;;;182.93;37.90;;;;;;;1.92;67.65;98628.28;10405428;28;20122;-65
2021/12/27 06:15:21;;;;;;;374.40;37.28;;;;;;;1.81;68.13;98623.59;10405347;28;20116;-66
2021/12/27 06:20:23;;;;;;;320.77;43.72;;;;;;;1.87;67.97;98625.91;10404400;28;20498;-65
2021/12/27 06:25:26;;;;;;;236.48;28.83;;;;;;;1.81;68.01;98607.28;10404703;28;20571;-66
2021/12/27 06:30:27;;;;;;;208.48;37.80;;;;;;;1.84;68.26;98609.75;10404435;28;20417;-66
2021/12/27 06:35:29;;;;;;;131.18;33.45;;;;;;;1.97;67.92;98605.72;10404167;28;20497;-66
2021/12/27 06:40:30;;;;;;;87.65;29.17;;;;;;;1.97;67.66;98600.56;10386863;28;20057;-65
2021/12/27 06:45:32;;;;;;;144.90;33.83;;;;;;;1.95;67.81;98592.88;10404692;28;20133;-65
2021/12/27 06:50:34;;;;;;;131.57;32.15;;;;;;;1.81;67.86;98595.25;10407798;28;20052;-66
2021/12/27 06:55:36;;;;;;;127.15;32.50;;;;;;;1.87;68.11;98592.38;10412317;28;20045;-65
2021/12/27 07:00:38;;;;;;;145.75;34.65;;;;;;;1.89;68.08;98593.16;10412392;28;20136;-65
2021/12/27 07:05:41;;;;;;;116.38;32.90;;;;;;;1.98;67.98;98603.06;10411480;28;20080;-66
2021/12/27 07:10:43;;;;;;;113.63;34.90;;;;;;;1.96;67.96;98593.72;10411787;28;20124;-66
2021/12/27 07:15:45;;;;;;;119.20;34.25;;;;;;;1.95;67.80;98607.53;10411592;28;20041;-66
2021/12/27 07:20:47;;;;;;;132.18;34.72;;;;;;;2.00;67.85;98608.13;10411089;28;20140;-67
2021/12/27 07:25:49;;;;;;;103.90;33.00;;;;;;;1.97;67.81;98605.72;10411133;28;20132;-66
2021/12/27 07:30:51;;;;;;;235.45;36.90;;;;;;;1.84;68.19;98612.31;10410453;28;20053;-66
2021/12/27 07:35:52;;;;;;;126.47;32.90;;;;;;;1.69;68.41;98605.28;10409731;28;20076;-66
2021/12/27 07:40:54;;;;;;;76.65;28.58;;;;;;;1.84;68.38;98602.00;10409437;28;20053;-66
2021/12/27 07:45:56;;;;;;;85.05;29.30;;;;;;;1.82;68.12;98601.25;10410509;28;20146;-66
2021/12/27 07:50:58;;;;;;;80.10;30.17;;;;;;;1.85;68.30;98604.50;10408835;28;20128;-66
2021/12/27 07:55:59;;;;;;;117.95;34.95;;;;;;;1.92;68.25;98595.59;10410277;28;20482;-67
2021/12/27 08:01:02;;;;;;;158.10;37.47;;;;;;;1.88;68.56;98581.19;10409608;28;20136;-66
2021/12/27 08:06:04;;;;;;;173.27;37.20;;;;;;;2.07;68.09;98579.41;10408333;28;20079;-66
2021/12/27 08:11:06;;;;;;;90.88;32.20;;;;;;;2.08;68.13;98581.09;10410054;28;20052;-66
2021/12/27 08:16:09;;;;;;;115.35;34.05;;;;;;;2.09;68.11;98584.50;10408435;28;20049;-66
2021/12/27 08:21:16;;;;;;;158.80;35.85;;;;;;;2.26;67.88;98591.44;10409238;28;20084;-66
2021/12/27 08:26:18;;;;;;;180.13;36.30;;;;;;;2.42;67.83;98588.06;10409789;28;20129;-67
2021/12/27 08:31:20;;;;;;;155.35;36.05;;;;;;;2.51;67.35;98591.94;10409386;28;20108;-67
2021/12/27 08:36:22;;;;;;;98.43;32.30;;;;;;;2.36;67.62;98588.34;10405043;28;20077;-66
2021/12/27 08:41:27;;;;;;;224.50;38.72;;;;;;;2.23;68.21;98577.78;10413985;28;20054;-66
2021/12/27 08:46:30;;;;;;;114.75;34.13;;;;;;;2.35;68.06;98573.78;10412287;28;20037;-66
2021/12/27 08:51:32;;;;;;;329.58;41.40;;;;;;;2.50;67.61;98570.44;10404464;28;20095;-66
2021/12/27 08:56:33;;;;;;;340.52;39.67;;;;;;;2.56;67.41;98569.34;10404428;28;20080;-66
2021/12/27 09:01:35;;;;;;;231.27;36.72;;;;;;;2.58;67.48;98575.25;10403415;28;20045;-66
2021/12/27 09:06:37;;;;;;;196.50;38.08;;;;;;;2.67;67.51;98567.88;10405649;28;20050;-66
2021/12/27 09:11:40;;;;;;;161.55;36.25;;;;;;;2.61;67.36;98564.78;10403151;28;20045;-66
2021/12/27 09:16:43;;;;;;;165.43;35.28;;;;;;;2.54;67.69;98559.06;10402990;28;20041;-66
2021/12/27 09:21:45;;;;;;;159.13;37.13;;;;;;;2.53;67.70;98559.16;10404320;28;20098;-66
2021/12/27 09:26:49;;;;;;;159.55;36.25;;;;;;;2.53;67.89;98554.00;10405564;28;20049;-66
2021/12/27 09:31:50;;;;;;;149.90;34.50;;;;;;;2.65;67.71;98563.72;10405076;28;21055;-66
2021/12/27 09:36:52;;;;;;;117.50;32.03;;;;;;;2.72;67.49;98550.44;10403356;28;20060;-66
2021/12/27 09:41:54;;;;;;;166.27;35.60;;;;;;;2.79;67.58;98559.53;10403653;28;20510;-67
2021/12/27 09:46:56;;;;;;;113.18;32.25;;;;;;;2.67;67.47;98547.25;10405034;28;20128;-66
2021/12/27 09:51:59;;;;;;;76.75;28.38;;;;;;;2.63;67.82;98539.72;10405141;28;20132;-66
2021/12/27 09:57:01;;;;;;;98.50;35.03;;;;;;;2.65;67.78;98541.31;10439599;28;20131;-66
2021/12/27 10:02:03;;;;;;;167.98;37.28;;;;;;;2.75;67.73;98536.53;10442899;28;20343;-67
2021/12/27 10:07:05;;;;;;;148.55;42.17;;;;;;;2.69;67.64;98529.94;10425522;28;20435;-67
2021/12/27 10:12:08;;;;;;;98.63;30.55;;;;;;;2.63;67.85;98531.97;10404237;28;20462;-67
2021/12/27 10:17:11;;;;;;;75.10;30.50;;;;;;;2.70;67.61;98521.25;10403403;28;20115;-68
2021/12/27 10:22:12;;;;;;;225.32;85.65;;;;;;;2.74;67.80;98511.63;10403598;28;20054;-68
2021/12/27 10:27:14;;;;;;;50.38;23.23;;;;;;;2.98;67.77;98506.06;10403169;28;20552;-68
2021/12/27 10:32:18;;;;;;;70.25;24.40;;;;;;;3.39;67.05;98495.28;10403524;28;20164;-67
2021/12/27 10:37:24;;;;;;;72.35;25.85;;;;;;;3.43;66.88;98492.47;10402978;28;20053;-67
2021/12/27 10:42:28;;;;;;;57.65;23.92;;;;;;;3.27;67.12;98496.78;10404062;28;20053;-67
2021/12/27 10:47:45;;;;;;;80.50;28.60;;;;;;;3.34;66.76;98486.94;10404057;28;20049;-68
2021/12/27 10:52:49;;;;;;;60.80;24.95;;;;;;;3.34;66.72;98476.59;10402514;28;20136;-67
2021/12/27 10:57:52;;;;;;;42.05;21.95;;;;;;;3.57;66.72;98460.69;10403022;28;20041;-77
2021/12/27 11:02:54;;;;;;;50.90;21.08;;;;;;;3.63;66.76;98462.94;10404105;28;20136;-77
2021/12/27 11:08:00;;;;;;;48.60;21.80;;;;;;;3.72;66.19;98459.88;10401544;28;20136;-77
2021/12/27 11:13:05;;;;;;;69.53;26.45;;;;;;;3.67;66.33;98472.19;10403225;28;20144;-76
2021/12/27 11:18:07;;;;;;;70.13;25.75;;;;;;;3.62;66.49;98461.28;10402812;28;20099;-77
2021/12/27 11:23:10;;;;;;;71.25;26.23;;;;;;;3.61;66.83;98467.38;10403893;28;20095;-76
2021/12/27 11:28:28;;;;;;;72.55;26.38;;;;;;;3.86;66.49;98470.31;10403828;28;20520;-78
2021/12/27 11:33:53;;;;;;;72.95;26.38;;;;;;;3.92;66.56;98457.03;10403363;28;20053;-76
2021/12/27 11:38:56;;;;;;;64.57;24.38;;;;;;;4.07;66.36;98452.75;10411756;28;20053;-78
2021/12/27 11:44:06;;;;;;;44.78;21.52;;;;;;;4.23;66.24;98448.38;10411183;28;20140;-76
2021/12/27 11:49:08;;;;;;;46.63;21.60;;;;;;;4.25;65.95;98446.53;10410414;28;20054;-77
2021/12/27 11:54:29;;;;;;;52.20;23.98;;;;;;;4.18;65.79;98438.28;10409150;28;20050;-76
2021/12/27 11:59:37;;;;;;;54.90;25.52;;;;;;;4.02;65.93;98434.06;10410087;28;20053;-77
2021/12/27 12:04:45;;;;;;;49.67;24.38;;;;;;;3.90;67.02;98414.91;10409394;28;20466;-77
2021/12/27 12:09:50;;;;;;;57.72;26.73;;;;;;;3.77;67.13;98409.56;10409914;28;20075;-77
2021/12/27 12:14:58;;;;;;;52.60;25.63;;;;;;;3.62;67.97;98417.34;10408723;28;20056;-76
2021/12/27 12:20:00;;;;;;;91.43;43.72;;;;;;;3.65;67.83;98406.81;10408024;28;20493;-77
2021/12/27 12:25:19;;;;;;;68.07;35.42;;;;;;;3.70;68.01;98399.66;10409555;28;20478;-77
2021/12/27 12:30:22;;;;;;;57.20;26.42;;;;;;;3.80;67.98;98393.03;10409143;28;20052;-76
2021/12/27 12:35:31;;;;;;;65.55;29.42;;;;;;;3.85;68.13;98402.22;10406628;28;20046;-76
2021/12/27 12:40:33;;;;;;;66.13;25.45;;;;;;;4.06;67.71;98400.19;10409395;28;20116;-76
2021/12/27 12:45:37;;;;;;;63.38;26.98;;;;;;;4.17;67.58;98394.38;10411072;28;20061;-77
2021/12/27 12:50:39;;;;;;;106.57;51.55;;;;;;;4.23;67.35;98391.44;10410929;28;20049;-76
2021/12/27 12:55:40;;;;;;;96.97;36.35;;;;;;;4.26;67.47;98394.66;10406811;28;20080;-76
2021/12/27 13:00:42;;;;;;;58.40;27.17;;;;;;;4.32;67.55;98396.91;10408773;28;20124;-77
2021/12/27 13:05:58;;;;;;;44.10;23.35;;;;;;;4.41;67.67;98387.78;10407689;28;20049;-77
2021/12/27 13:11:03;;;;;;;57.60;26.02;;;;;;;4.51;67.39;98381.13;10407633;28;20413;-77
2021/12/27 13:16:05;;;;;;;63.17;27.27;;;;;;;4.63;67.16;98390.75;10407218;28;20050;-78
2021/12/27 13:21:11;;;;;;;74.03;27.95;;;;;;;4.70;67.00;98386.84;10406656;28;20053;-79
2021/12/27 13:26:16;;;;;;;54.40;23.98;;;;;;;4.72;67.20;98388.41;10404192;28;20053;-79
2021/12/27 13:31:20;;;;;;;67.50;27.38;;;;;;;4.80;66.91;98393.13;10404227;28;20050;-79
2021/12/27 13:36:26;;;;;;;67.68;27.30;;;;;;;4.77;66.85;98388.16;10402237;28;20128;-79
2021/12/27 13:41:31;;;;;;;81.07;29.75;;;;;;;4.80;67.01;98387.13;10403750;28;20148;-79
2021/12/27 13:46:37;;;;;;;48.92;23.50;;;;;;;4.79;66.92;98381.13;10404176;28;20041;-79
2021/12/27 13:51:39;;;;;;;73.28;27.73;;;;;;;4.84;66.77;98383.44;10404281;28;20052;-79
2021/12/27 13:56:47;;;;;;;87.55;31.52;;;;;;;4.80;66.78;98382.75;10402736;28;20502;-79
2021/12/27 14:01:55;;;;;;;64.65;28.50;;;;;;;4.73;66.83;98376.31;10404272;28;20145;-79
2021/12/27 14:07:05;;;;;;;83.97;33.35;;;;;;;4.65;67.04;98369.00;10402015;28;20069;-80
2021/12/27 14:12:10;;;;;;;104.25;39.17;;;;;;;4.66;67.10;98369.81;10402529;28;20133;-79
2021/12/27 14:17:16;;;;;;;65.45;30.17;;;;;;;4.56;67.40;98366.97;10401690;28;20049;-79
2021/12/27 14:22:21;;;;;;;58.00;27.48;;;;;;;4.52;67.60;98360.31;10403549;28;20053;-77
2021/12/27 14:27:30;;;;;;;56.40;26.33;;;;;;;4.40;68.00;98363.63;10401937;28;20140;-80
2021/12/27 14:32:32;;;;;;;60.63;25.42;;;;;;;4.51;67.93;98371.59;10403636;28;20388;-78
2021/12/27 14:37:34;;;;;;;73.05;28.02;;;;;;;4.59;67.96;98359.03;10401337;28;20128;-78
2021/12/27 14:42:35;;;;;;;65.30;26.98;;;;;;;4.67;67.68;98362.00;10402897;28;20053;-79
2021/12/27 14:47:37;;;;;;;81.28;29.42;;;;;;;4.72;67.55;98366.88;10402816;28;20140;-78
2021/12/27 14:52:39;;;;;;;78.35;29.10;;;;;;;4.72;67.67;98364.28;10403031;28;20060;-79
2021/12/27 14:57:40;;;;;;;55.63;24.83;;;;;;;4.63;67.67;98357.06;10399158;28;20046;-78
2021/12/27 15:02:43;;;;;;;54.97;24.73;;;;;;;4.50;68.07;98362.16;10398753;28;20041;-77
2021/12/27 15:07:46;;;;;;;60.53;25.15;;;;;;;4.50;68.20;98362.16;10399835;28;20049;-78
2021/12/27 15:12:47;;;;;;;49.78;22.85;;;;;;;4.57;68.09;98345.34;10405076;28;20486;-78
2021/12/27 15:17:52;;;;;;;62.08;24.73;;;;;;;4.61;68.05;98357.19;10408184;28;20053;-77
2021/12/27 15:22:54;;;;;;;75.65;26.83;;;;;;;4.64;67.91;98358.72;10401822;28;20045;-77
2021/12/27 15:27:57;;;;;;;70.88;28.08;;;;;;;4.63;67.69;98344.13;10408466;28;20160;-78
2021/12/27 15:33:00;;;;;;;75.50;28.02;;;;;;;4.58;67.76;98352.16;10409139;28;20417;-78
2021/12/27 15:38:02;;;;;;;203.35;35.00;;;;;;;4.55;67.92;98349.78;10411157;28;20507;-77
2021/12/27 15:43:04;;;;;;;91.68;29.27;;;;;;;4.48;68.02;98348.47;10439416;28;20502;-77
2021/12/27 15:48:08;;;;;;;178.18;38.05;;;;;;;4.42;67.93;98353.19;10450329;28;20067;-78
2021/12/27 15:53:11;;;;;;;74.20;33.13;;;;;;;4.36;68.10;98354.38;10449157;28;20132;-77
2021/12/27 15:58:13;;;;;;;78.35;37.55;;;;;;;4.27;67.85;98360.09;10410389;28;20049;-78
2021/12/27 16:03:14;;;;;;;50.25;27.55;;;;;;;4.22;68.31;98351.78;10435374;28;20131;-78
2021/12/27 16:08:16;;;;;;;91.47;39.22;;;;;;;4.16;68.46;98353.91;10414702;28;20049;-78
2021/12/27 16:13:19;;;;;;;58.20;28.25;;;;;;;4.16;68.56;98364.25;10414749;28;20045;-77
2021/12/27 16:18:21;;;;;;;68.38;31.35;;;;;;;4.15;68.67;98366.00;10407108;28;20462;-77
2021/12/27 16:23:22;;;;;;;120.32;55.50;;;;;;;4.14;68.57;98360.91;10404913;28;20399;-78
2021/12/27 16:28:24;;;;;;;73.70;35.33;;;;;;;4.09;68.90;98362.97;10412238;28;20053;-78
2021/12/27 16:33:26;;;;;;;49.67;26.00;;;;;;;4.09;68.76;98363.75;10397898;28;20132;-78
2021/12/27 16:38:28;;;;;;;39.33;19.67;;;;;;;4.13;68.79;98362.66;10406658;28;20391;-77
2021/12/27 16:43:29;;;;;;;62.45;26.67;;;;;;;4.17;68.82;98363.34;10404551;28;20057;-77
2021/12/27 16:48:35;;;;;;;40.08;21.40;;;;;;;4.11;68.79;98355.94;10404732;28;20048;-78
2021/12/27 16:53:36;;;;;;;51.03;27.27;;;;;;;4.08;68.67;98349.19;10404835;28;20557;-78
2021/12/27 16:58:38;;;;;;;60.58;27.30;;;;;;;4.04;68.66;98347.69;10404864;28;20079;-78
2021/12/27 17:03:40;;;;;;;50.90;24.42;;;;;;;4.04;68.69;98350.28;10405158;28;20053;-78
2021/12/27 17:08:41;;;;;;;40.00;22.83;;;;;;;4.04;68.62;98350.28;10404903;28;20053;-78
2021/12/27 17:13:44;;;;;;;62.38;28.90;;;;;;;4.04;68.62;98358.03;10404508;28;20132;-78
2021/12/27 17:18:45;;;;;;;59.65;28.65;;;;;;;4.03;68.66;98358.94;10403819;28;20045;-79
2021/12/27 17:23:47;;;;;;;144.05;44.22;;;;;;;4.03;68.61;98352.97;10404163;28;20063;-78
2021/12/27 17:28:49;;;;;;;127.13;44.95;;;;;;;3.84;68.51;98346.25;10403884;28;20045;-78
2021/12/27 17:33:51;;;;;;;66.78;32.75;;;;;;;3.77;69.00;98362.19;10402655;28;20428;-77
2021/12/27 17:38:52;;;;;;;108.60;41.88;;;;;;;3.66;69.16;98352.44;10402402;28;20494;-79
2021/12/27 17:43:54;;;;;;;120.03;38.72;;;;;;;3.70;69.52;98358.28;10402503;28;20049;-78
2021/12/27 17:48:56;;;;;;;70.43;32.38;;;;;;;3.73;69.83;98361.53;10401108;28;20220;-75
2021/12/27 17:53:57;;;;;;;80.40;38.22;;;;;;;3.89;69.50;98371.84;10401827;28;20156;-78
2021/12/27 17:58:59;;;;;;;71.53;34.92;;;;;;;4.08;69.08;98369.88;10400280;28;20037;-78
2021/12/27 18:04:02;;;;;;;76.55;39.90;;;;;;;4.10;68.86;98365.44;10403849;28;20045;-78
2021/12/27 18:09:03;;;;;;;62.30;32.90;;;;;;;4.07;69.15;98363.03;10404615;28;20409;-79
2021/12/27 18:14:05;;;;;;;66.75;34.03;;;;;;;4.19;69.17;98361.50;10403856;28;20052;-78
2021/12/27 18:19:07;;;;;;;57.53;30.13;;;;;;;4.23;69.04;98360.38;10403290;28;20523;-79
2021/12/27 18:24:09;;;;;;;57.33;30.58;;;;;;;4.32;69.06;98357.25;10404091;28;20075;-78
2021/12/27 18:29:11;;;;;;;63.25;31.73;;;;;;;4.31;68.99;98353.81;10402504;28;20052;-78
2021/12/27 18:34:14;;;;;;;105.07;42.05;;;;;;;4.38;68.72;98360.31;10402544;28;20068;-78
2021/12/27 18:39:16;;;;;;;63.72;33.30;;;;;;;4.41;68.80;98349.75;10403003;28;20352;-78
2021/12/27 18:44:38;;;;;;;84.07;36.08;;;;;;;4.48;68.84;98351.06;10405705;28;20048;-78
2021/12/27 18:49:43;;;;;;;68.30;31.23;;;;;;;4.53;68.76;98349.03;10412599;28;20049;-78
2021/12/27 18:54:44;;;;;;;47.47;26.00;;;;;;;4.56;68.85;98350.59;10410738;28;20136;-70
2021/12/27 18:59:46;;;;;;;61.47;31.00;;;;;;;4.52;68.68;98351.69;10409444;28;20060;-71
2021/12/27 19:04:48;;;;;;;41.83;25.17;;;;;;;4.55;68.68;98344.59;10404971;28;20049;-71
2021/12/27 19:09:50;;;;;;;79.40;34.85;;;;;;;4.57;68.62;98342.75;10405598;28;20076;-70
2021/12/27 19:14:52;;;;;;;111.68;41.22;;;;;;;4.58;68.54;98344.41;10411032;28;20052;-71
2021/12/27 19:19:54;;;;;;;58.92;31.48;;;;;;;4.52;68.84;98346.53;10407556;28;20099;-70
2021/12/27 19:24:55;;;;;;;58.25;30.55;;;;;;;4.33;69.35;98336.44;10408784;28;20049;-71
2021/12/27 19:29:57;;;;;;;66.97;33.35;;;;;;;4.31;69.54;98332.31;10409230;28;20132;-70
2021/12/27 19:34:59;;;;;;;59.85;30.00;;;;;;;4.32;69.55;98336.53;10410553;28;20072;-70
2021/12/27 19:40:23;;;;;;;58.70;29.27;;;;;;;4.40;69.62;98340.34;10400575;28;20049;-70
2021/12/27 19:45:25;;;;;;;72.45;32.63;;;;;;;4.44;69.58;98330.63;10425231;28;20088;-71
2021/12/27 19:50:29;;;;;;;63.58;30.80;;;;;;;4.37;69.79;98327.56;10410669;28;20136;-70
2021/12/27 19:55:31;;;;;;;63.72;29.55;;;;;;;4.36;69.83;98312.97;10446316;28;20137;-69
2021/12/27 20:00:35;;;;;;;89.13;37.05;;;;;;;4.39;69.58;98311.97;10408216;28;20148;-69
2021/12/27 20:05:38;;;;;;;75.97;35.45;;;;;;;4.43;69.48;98316.84;10408746;28;20317;-69
2021/12/27 20:10:43;;;;;;;93.53;37.35;;;;;;;4.34;69.53;98312.25;10407491;28;20049;-70
2021/12/27 20:15:47;;;;;;;60.65;31.33;;;;;;;4.35;69.81;98307.91;10407173;28;20083;-69
2021/12/27 20:20:49;;;;;;;75.78;35.55;;;;;;;4.42;69.70;98315.19;10408642;28;20482;-69
2021/12/27 20:25:51;;;;;;;45.33;25.05;;;;;;;4.53;69.72;98328.34;10411127;28;20079;-69
2021/12/27 20:30:53;;;;;;;355.25;73.63;;;;;;;4.60;69.14;98319.25;10411371;28;20144;-69
2021/12/27 20:35:55;;;;;;;86.85;41.80;;;;;;;4.46;69.41;98315.84;10407974;28;20046;-70
2021/12/27 20:40:57;;;;;;;60.83;31.58;;;;;;;4.52;69.51;98316.31;10406766;28;20568;-69
2021/12/27 20:45:59;;;;;;;56.13;31.20;;;;;;;4.68;69.29;98306.66;10405452;28;20128;-69
2021/12/27 20:51:00;;;;;;;68.90;34.30;;;;;;;4.81;69.33;98308.50;10407986;28;20050;-69
2021/12/27 20:56:03;;;;;;;69.68;34.40;;;;;;;4.88;69.38;98312.38;10405060;28;20041;-69
2021/12/27 21:01:05;;;;;;;388.73;51.05;;;;;;;4.85;69.31;98318.59;10405755;28;20513;-69
2021/12/27 21:06:09;;;;;;;86.88;39.70;;;;;;;4.85;69.15;98307.38;10406454;28;20041;-69
2021/12/27 21:11:13;;;;;;;65.78;34.85;;;;;;;4.84;69.25;98313.50;10403136;28;20048;-69
2021/12/27 21:16:15;;;;;;;50.50;30.58;;;;;;;4.90;69.33;98300.16;10406214;28;20570;-70
2021/12/27 21:21:17;;;;;;;82.95;44.47;;;;;;;4.85;69.28;98308.22;10410778;28;20089;-70
2021/12/27 21:26:20;;;;;;;469.13;59.30;;;;;;;4.89;69.15;98316.63;10402361;28;20121;-70
2021/12/27 21:31:22;;;;;;;553.20;66.63;;;;;;;4.78;69.21;98313.88;10403493;28;20050;-70
2021/12/27 21:36:24;;;;;;;56.63;32.42;;;;;;;4.72;69.27;98310.72;10403789;28;20140;-70
2021/12/27 21:41:26;;;;;;;48.85;27.77;;;;;;;4.82;69.24;98317.94;10404315;28;20136;-69
2021/12/27 21:46:29;;;;;;;39.67;23.80;;;;;;;4.89;69.19;98311.44;10403892;28;20433;-70
2021/12/27 21:51:31;;;;;;;105.50;30.55;;;;;;;4.91;69.18;98312.19;10403791;28;20056;-70
2021/12/27 21:56:33;;;;;;;116.15;45.85;;;;;;;4.89;69.12;98309.69;10402929;28;20412;-69
2021/12/27 22:01:34;;;;;;;44.42;25.83;;;;;;;4.76;68.98;98308.78;10403347;28;20126;-69
2021/12/27 22:06:37;;;;;;;126.43;41.80;;;;;;;4.67;68.80;98310.19;10403610;28;20095;-69
2021/12/27 22:11:39;;;;;;;45.03;25.33;;;;;;;4.56;69.39;98299.66;10403496;28;20481;-69
2021/12/27 22:17:00;;;;;;;50.28;25.30;;;;;;;4.63;69.56;98297.53;10402521;28;20053;-69
2021/12/27 22:22:03;;;;;;;92.72;34.08;;;;;;;4.62;69.31;98301.88;10402272;28;20041;-69
2021/12/27 22:27:04;;;;;;;53.58;26.80;;;;;;;4.64;69.36;98291.41;10401706;28;20049;-69
2021/12/27 22:32:08;;;;;;;72.65;31.95;;;;;;;4.69;69.20;98279.88;10401781;28;20565;-69
2021/12/27 22:37:09;;;;;;;45.53;24.08;;;;;;;4.69;69.12;98281.63;10403767;28;20469;-69
2021/12/27 22:42:11;;;;;;;181.00;45.58;;;;;;;4.63;69.19;98264.72;10403260;28;20085;-69
2021/12/27 22:47:13;;;;;;;109.72;26.13;;;;;;;4.45;69.50;98267.59;10401044;28;20408;-68
2021/12/27 22:52:15;;;;;;;93.97;31.95;;;;;;;4.30;69.55;98256.41;10411245;28;20051;-69
2021/12/27 22:57:16;;;;;;;155.38;34.35;;;;;;;4.33;69.46;98266.56;10412657;28;20409;-68
2021/12/27 23:02:18;;;;;;;62.03;23.45;;;;;;;4.21;69.72;98261.34;10401526;28;20049;-70
2021/12/27 23:07:20;;;;;;;73.93;31.42;;;;;;;4.19;69.87;98252.81;10401909;28;20049;-68